sensor_id;sensor_type;location;lat;lon;timestamp;pressure;altitude;pressure_sealevel;temperature;humidity
24620;BME280;12763;55.802;37.404;2023-11-21T00:01:58;99002.75;;;-4.83;76.95
24620;BME280;12763;55.802;37.404;2023-11-21T00:04:24;99003.84;;;-4.95;76.98
24620;BME280;12763;55.802;37.404;2023-11-21T00:06:51;99005.31;;;-4.81;75.62
24620;BME280;12763;55.802;37.404;2023-11-21T00:09:17;99013.25;;;-4.80;75.34
24620;BME280;12763;55.802;37.404;2023-11-21T00:11:44;99001.34;;;-4.77;74.86
24620;BME280;12763;55.802;37.404;2023-11-21T00:14:11;99008.47;;;-4.66;74.74
24620;BME280;12763;55.802;37.404;2023-11-21T00:16:37;99016.19;;;-4.52;74.62
24620;BME280;12763;55.802;37.404;2023-11-21T00:19:03;99009.03;;;-4.72;74.05
24620;BME280;12763;55.802;37.404;2023-11-21T00:21:29;99017.34;;;-4.45;73.63
24620;BME280;12763;55.802;37.404;2023-11-21T00:23:55;99015.84;;;-4.68;74.25
24620;BME280;12763;55.802;37.404;2023-11-21T00:26:21;99007.41;;;-4.85;74.48
24620;BME280;12763;55.802;37.404;2023-11-21T00:28:56;99013.84;;;-4.66;74.41
24620;BME280;12763;55.802;37.404;2023-11-21T00:31:22;99018.16;;;-4.54;73.59
24620;BME280;12763;55.802;37.404;2023-11-21T00:33:48;99009.22;;;-4.55;73.68
24620;BME280;12763;55.802;37.404;2023-11-21T00:36:14;99002.31;;;-4.88;75.22
24620;BME280;12763;55.802;37.404;2023-11-21T00:38:40;99009.56;;;-4.79;75.03
24620;BME280;12763;55.802;37.404;2023-11-21T00:41:06;99007.66;;;-4.67;74.56
24620;BME280;12763;55.802;37.404;2023-11-21T00:43:32;99004.81;;;-4.65;74.51
24620;BME280;12763;55.802;37.404;2023-11-21T00:46:04;99012.97;;;-5.07;76.32
24620;BME280;12763;55.802;37.404;2023-11-21T00:48:30;99004.94;;;-5.27;77.31
24620;BME280;12763;55.802;37.404;2023-11-21T00:50:56;99011.84;;;-5.55;78.76
24620;BME280;12763;55.802;37.404;2023-11-21T00:53:23;98995.34;;;-5.41;78.29
24620;BME280;12763;55.802;37.404;2023-11-21T00:55:50;98997.06;;;-5.40;78.48
24620;BME280;12763;55.802;37.404;2023-11-21T00:58:17;99006.78;;;-5.28;77.96
24620;BME280;12763;55.802;37.404;2023-11-21T01:00:43;99013.31;;;-5.62;78.62
24620;BME280;12763;55.802;37.404;2023-11-21T01:03:09;99008.69;;;-5.40;78.52
24620;BME280;12763;55.802;37.404;2023-11-21T01:05:35;99009.28;;;-5.36;78.13
24620;BME280;12763;55.802;37.404;2023-11-21T01:08:01;99001.84;;;-5.44;78.11
24620;BME280;12763;55.802;37.404;2023-11-21T01:10:27;99006.59;;;-5.36;77.99
24620;BME280;12763;55.802;37.404;2023-11-21T01:12:53;99004.69;;;-5.45;78.32
24620;BME280;12763;55.802;37.404;2023-11-21T01:15:19;99003.34;;;-5.30;77.55
24620;BME280;12763;55.802;37.404;2023-11-21T01:17:45;99002.97;;;-5.46;77.78
24620;BME280;12763;55.802;37.404;2023-11-21T01:20:11;98993.53;;;-5.61;78.76
24620;BME280;12763;55.802;37.404;2023-11-21T01:22:40;98995.16;;;-5.49;78.05
24620;BME280;12763;55.802;37.404;2023-11-21T01:25:07;98994.38;;;-5.61;78.54
24620;BME280;12763;55.802;37.404;2023-11-21T01:27:34;98999.28;;;-5.45;77.96
24620;BME280;12763;55.802;37.404;2023-11-21T01:30:02;99010.19;;;-5.26;77.05
24620;BME280;12763;55.802;37.404;2023-11-21T01:32:30;99005.31;;;-5.32;76.99
24620;BME280;12763;55.802;37.404;2023-11-21T01:34:57;99016.34;;;-5.35;77.10
24620;BME280;12763;55.802;37.404;2023-11-21T01:37:23;99009.38;;;-5.17;76.52
24620;BME280;12763;55.802;37.404;2023-11-21T01:39:49;99005.44;;;-5.54;77.61
24620;BME280;12763;55.802;37.404;2023-11-21T01:42:15;99011.16;;;-5.48;76.96
24620;BME280;12763;55.802;37.404;2023-11-21T01:44:41;99012.03;;;-5.47;76.71
24620;BME280;12763;55.802;37.404;2023-11-21T01:47:08;99015.22;;;-5.32;76.29
24620;BME280;12763;55.802;37.404;2023-11-21T01:49:37;99027.31;;;-5.79;77.13
24620;BME280;12763;55.802;37.404;2023-11-21T01:52:03;99017.66;;;-5.50;76.60
24620;BME280;12763;55.802;37.404;2023-11-21T01:54:30;99023.81;;;-5.59;75.70
24620;BME280;12763;55.802;37.404;2023-11-21T01:57:00;99018.63;;;-5.92;77.51
24620;BME280;12763;55.802;37.404;2023-11-21T01:59:37;99009.06;;;-5.65;76.79
24620;BME280;12763;55.802;37.404;2023-11-21T02:02:04;99016.72;;;-5.60;75.90
24620;BME280;12763;55.802;37.404;2023-11-21T02:04:35;99010.69;;;-5.73;75.51
24620;BME280;12763;55.802;37.404;2023-11-21T02:07:03;99002.78;;;-6.07;77.88
24620;BME280;12763;55.802;37.404;2023-11-21T02:09:31;99000.59;;;-5.81;76.66
24620;BME280;12763;55.802;37.404;2023-11-21T02:12:00;99002.16;;;-5.58;74.92
24620;BME280;12763;55.802;37.404;2023-11-21T02:14:27;99016.78;;;-5.71;74.04
24620;BME280;12763;55.802;37.404;2023-11-21T02:16:55;98997.97;;;-5.71;73.92
24620;BME280;12763;55.802;37.404;2023-11-21T02:19:23;99017.78;;;-5.72;73.01
24620;BME280;12763;55.802;37.404;2023-11-21T02:21:53;99011.16;;;-5.48;72.46
24620;BME280;12763;55.802;37.404;2023-11-21T02:24:23;99009.16;;;-5.55;72.31
24620;BME280;12763;55.802;37.404;2023-11-21T02:26:50;99014.63;;;-5.15;71.24
24620;BME280;12763;55.802;37.404;2023-11-21T02:29:21;99017.66;;;-5.50;71.29
24620;BME280;12763;55.802;37.404;2023-11-21T02:31:56;99003.88;;;-5.77;72.39
24620;BME280;12763;55.802;37.404;2023-11-21T02:34:22;99011.13;;;-6.21;74.42
24620;BME280;12763;55.802;37.404;2023-11-21T02:36:50;99016.69;;;-6.02;73.86
24620;BME280;12763;55.802;37.404;2023-11-21T02:39:17;99020.13;;;-6.00;74.18
24620;BME280;12763;55.802;37.404;2023-11-21T02:41:44;99017.03;;;-5.95;73.54
24620;BME280;12763;55.802;37.404;2023-11-21T02:44:10;99020.84;;;-5.77;73.67
24620;BME280;12763;55.802;37.404;2023-11-21T02:46:37;99020.34;;;-5.91;73.06
24620;BME280;12763;55.802;37.404;2023-11-21T02:49:03;99017.28;;;-6.30;74.83
24620;BME280;12763;55.802;37.404;2023-11-21T02:51:32;99030.94;;;-5.90;74.89
24620;BME280;12763;55.802;37.404;2023-11-21T02:53:59;99037.28;;;-6.34;75.92
24620;BME280;12763;55.802;37.404;2023-11-21T02:56:27;99037.72;;;-6.07;76.39
24620;BME280;12763;55.802;37.404;2023-11-21T02:58:59;99042.13;;;-6.06;75.88
24620;BME280;12763;55.802;37.404;2023-11-21T03:01:25;99041.59;;;-5.88;75.44
24620;BME280;12763;55.802;37.404;2023-11-21T03:03:52;99035.28;;;-6.10;76.57
24620;BME280;12763;55.802;37.404;2023-11-21T03:06:18;99042.53;;;-5.89;76.04
24620;BME280;12763;55.802;37.404;2023-11-21T03:08:45;99037.16;;;-5.89;76.19
24620;BME280;12763;55.802;37.404;2023-11-21T03:11:11;99038.03;;;-5.89;76.59
24620;BME280;12763;55.802;37.404;2023-11-21T03:13:39;99051.16;;;-5.75;76.58
24620;BME280;12763;55.802;37.404;2023-11-21T03:16:09;99039.97;;;-6.23;78.63
24620;BME280;12763;55.802;37.404;2023-11-21T03:18:40;99043.41;;;-5.89;78.29
24620;BME280;12763;55.802;37.404;2023-11-21T03:21:06;99043.16;;;-5.86;77.46
24620;BME280;12763;55.802;37.404;2023-11-21T03:23:36;99040.00;;;-5.91;78.10
24620;BME280;12763;55.802;37.404;2023-11-21T03:26:03;99040.50;;;-5.97;78.66
24620;BME280;12763;55.802;37.404;2023-11-21T03:28:30;99046.72;;;-6.50;80.81
24620;BME280;12763;55.802;37.404;2023-11-21T03:30:57;99037.41;;;-6.24;81.25
24620;BME280;12763;55.802;37.404;2023-11-21T03:33:24;99049.38;;;-5.85;79.42
24620;BME280;12763;55.802;37.404;2023-11-21T03:35:51;99038.13;;;-5.90;79.60
24620;BME280;12763;55.802;37.404;2023-11-21T03:38:19;99047.91;;;-5.89;79.80
24620;BME280;12763;55.802;37.404;2023-11-21T03:40:46;99047.72;;;-5.98;80.69
24620;BME280;12763;55.802;37.404;2023-11-21T03:43:13;99048.69;;;-5.99;81.52
24620;BME280;12763;55.802;37.404;2023-11-21T03:45:40;99049.38;;;-5.85;80.75
24620;BME280;12763;55.802;37.404;2023-11-21T03:48:07;99049.31;;;-6.06;80.84
24620;BME280;12763;55.802;37.404;2023-11-21T03:50:37;99056.72;;;-5.99;81.50
24620;BME280;12763;55.802;37.404;2023-11-21T03:53:03;99062.56;;;-5.93;81.50
24620;BME280;12763;55.802;37.404;2023-11-21T03:55:30;99058.19;;;-5.94;80.85
24620;BME280;12763;55.802;37.404;2023-11-21T03:57:58;99060.38;;;-5.88;81.17
24620;BME280;12763;55.802;37.404;2023-11-21T04:00:26;99054.09;;;-5.78;80.71
24620;BME280;12763;55.802;37.404;2023-11-21T04:02:53;99055.66;;;-6.07;81.81
24620;BME280;12763;55.802;37.404;2023-11-21T04:05:20;99052.63;;;-6.03;82.38
24620;BME280;12763;55.802;37.404;2023-11-21T04:07:50;99057.81;;;-5.90;82.29
24620;BME280;12763;55.802;37.404;2023-11-21T04:10:19;99057.47;;;-5.97;81.24
24620;BME280;12763;55.802;37.404;2023-11-21T04:12:45;99061.78;;;-5.84;81.45
24620;BME280;12763;55.802;37.404;2023-11-21T04:15:12;99063.69;;;-5.64;80.91
24620;BME280;12763;55.802;37.404;2023-11-21T04:17:41;99060.94;;;-5.53;79.85
24620;BME280;12763;55.802;37.404;2023-11-21T04:20:08;99061.63;;;-5.72;79.99
24620;BME280;12763;55.802;37.404;2023-11-21T04:22:40;99063.56;;;-5.94;81.46
24620;BME280;12763;55.802;37.404;2023-11-21T04:25:16;99068.94;;;-5.74;81.51
24620;BME280;12763;55.802;37.404;2023-11-21T04:27:45;99060.88;;;-5.94;81.74
24620;BME280;12763;55.802;37.404;2023-11-21T04:30:12;99067.16;;;-5.84;81.96
24620;BME280;12763;55.802;37.404;2023-11-21T04:32:40;99063.22;;;-5.69;81.36
24620;BME280;12763;55.802;37.404;2023-11-21T04:35:08;99068.81;;;-5.93;81.75
24620;BME280;12763;55.802;37.404;2023-11-21T04:37:34;99065.81;;;-5.79;81.87
24620;BME280;12763;55.802;37.404;2023-11-21T04:40:01;99064.84;;;-5.57;81.22
24620;BME280;12763;55.802;37.404;2023-11-21T04:42:30;99058.44;;;-5.98;82.05
24620;BME280;12763;55.802;37.404;2023-11-21T04:44:57;99078.69;;;-5.93;82.25
24620;BME280;12763;55.802;37.404;2023-11-21T04:47:23;99082.19;;;-6.14;83.13
24620;BME280;12763;55.802;37.404;2023-11-21T04:49:49;99086.75;;;-5.93;82.20
24620;BME280;12763;55.802;37.404;2023-11-21T04:52:15;99073.75;;;-6.09;82.38
24620;BME280;12763;55.802;37.404;2023-11-21T04:54:41;99096.09;;;-6.09;83.10
24620;BME280;12763;55.802;37.404;2023-11-21T04:57:08;99090.84;;;-5.78;82.29
24620;BME280;12763;55.802;37.404;2023-11-21T04:59:35;99081.94;;;-6.11;82.56
24620;BME280;12763;55.802;37.404;2023-11-21T05:02:01;99086.56;;;-6.24;83.47
24620;BME280;12763;55.802;37.404;2023-11-21T05:04:27;99087.28;;;-6.00;82.41
24620;BME280;12763;55.802;37.404;2023-11-21T05:06:53;99095.59;;;-6.03;83.35
24620;BME280;12763;55.802;37.404;2023-11-21T05:09:19;99100.28;;;-6.38;84.25
24620;BME280;12763;55.802;37.404;2023-11-21T05:11:46;99108.44;;;-6.17;83.98
24620;BME280;12763;55.802;37.404;2023-11-21T05:14:12;99120.03;;;-6.17;84.26
24620;BME280;12763;55.802;37.404;2023-11-21T05:16:40;99121.03;;;-6.40;84.63
24620;BME280;12763;55.802;37.404;2023-11-21T05:19:06;99110.75;;;-6.35;84.50
24620;BME280;12763;55.802;37.404;2023-11-21T05:21:32;99110.50;;;-6.10;83.85
24620;BME280;12763;55.802;37.404;2023-11-21T05:23:59;99116.09;;;-6.13;84.47
24620;BME280;12763;55.802;37.404;2023-11-21T05:26:26;99114.06;;;-6.31;84.87
24620;BME280;12763;55.802;37.404;2023-11-21T05:28:52;99108.19;;;-5.82;83.39
24620;BME280;12763;55.802;37.404;2023-11-21T05:31:17;99106.78;;;-5.66;81.81
24620;BME280;12763;55.802;37.404;2023-11-21T05:33:44;99102.66;;;-6.02;83.74
24620;BME280;12763;55.802;37.404;2023-11-21T05:36:10;99100.44;;;-5.85;83.04
24620;BME280;12763;55.802;37.404;2023-11-21T05:38:36;99098.19;;;-6.23;84.13
24620;BME280;12763;55.802;37.404;2023-11-21T05:41:02;99097.28;;;-6.02;84.34
24620;BME280;12763;55.802;37.404;2023-11-21T05:43:30;99092.69;;;-6.22;84.38
24620;BME280;12763;55.802;37.404;2023-11-21T05:45:58;99077.06;;;-6.17;84.51
24620;BME280;12763;55.802;37.404;2023-11-21T05:48:24;99098.25;;;-5.91;84.28
24620;BME280;12763;55.802;37.404;2023-11-21T05:50:52;99093.53;;;-5.78;83.33
24620;BME280;12763;55.802;37.404;2023-11-21T05:53:18;99094.47;;;-5.68;82.33
24620;BME280;12763;55.802;37.404;2023-11-21T05:55:44;99098.97;;;-5.89;83.32
24620;BME280;12763;55.802;37.404;2023-11-21T05:58:10;99104.63;;;-6.15;84.31
24620;BME280;12763;55.802;37.404;2023-11-21T06:00:36;99099.25;;;-5.72;83.46
24620;BME280;12763;55.802;37.404;2023-11-21T06:03:02;99102.19;;;-6.18;85.74
24620;BME280;12763;55.802;37.404;2023-11-21T06:05:29;99104.47;;;-5.59;82.98
24620;BME280;12763;55.802;37.404;2023-11-21T06:07:58;99117.97;;;-5.39;81.89
24620;BME280;12763;55.802;37.404;2023-11-21T06:10:25;99116.13;;;-5.49;81.13
24620;BME280;12763;55.802;37.404;2023-11-21T06:12:52;99116.19;;;-5.60;81.48
24620;BME280;12763;55.802;37.404;2023-11-21T06:15:18;99117.75;;;-5.58;80.92
24620;BME280;12763;55.802;37.404;2023-11-21T06:17:46;99122.03;;;-5.87;81.80
24620;BME280;12763;55.802;37.404;2023-11-21T06:20:15;99119.09;;;-5.52;81.84
24620;BME280;12763;55.802;37.404;2023-11-21T06:22:46;99130.84;;;-5.85;80.94
24620;BME280;12763;55.802;37.404;2023-11-21T06:25:13;99126.84;;;-5.38;80.62
24620;BME280;12763;55.802;37.404;2023-11-21T06:27:41;99125.44;;;-5.21;79.83
24620;BME280;12763;55.802;37.404;2023-11-21T06:30:08;99114.97;;;-5.56;79.71
24620;BME280;12763;55.802;37.404;2023-11-21T06:32:38;99120.75;;;-5.40;79.82
24620;BME280;12763;55.802;37.404;2023-11-21T06:35:07;99114.81;;;-5.02;78.10
24620;BME280;12763;55.802;37.404;2023-11-21T06:37:35;99120.25;;;-5.13;77.51
24620;BME280;12763;55.802;37.404;2023-11-21T06:40:02;99118.47;;;-5.45;78.64
24620;BME280;12763;55.802;37.404;2023-11-21T06:42:31;99120.41;;;-5.47;78.86
24620;BME280;12763;55.802;37.404;2023-11-21T06:44:57;99119.31;;;-5.44;79.42
24620;BME280;12763;55.802;37.404;2023-11-21T06:47:24;99121.50;;;-5.17;79.12
24620;BME280;12763;55.802;37.404;2023-11-21T06:49:51;99130.13;;;-5.03;77.26
24620;BME280;12763;55.802;37.404;2023-11-21T06:52:18;99128.66;;;-5.27;78.13
24620;BME280;12763;55.802;37.404;2023-11-21T06:54:44;99139.44;;;-5.27;78.94
24620;BME280;12763;55.802;37.404;2023-11-21T06:57:11;99128.66;;;-5.07;77.86
24620;BME280;12763;55.802;37.404;2023-11-21T06:59:37;99138.25;;;-5.14;77.23
24620;BME280;12763;55.802;37.404;2023-11-21T07:02:03;99132.53;;;-5.00;77.11
24620;BME280;12763;55.802;37.404;2023-11-21T07:04:35;99144.28;;;-5.01;76.61
24620;BME280;12763;55.802;37.404;2023-11-21T07:07:03;99134.50;;;-5.02;76.25
24620;BME280;12763;55.802;37.404;2023-11-21T07:09:29;99131.88;;;-4.71;75.48
24620;BME280;12763;55.802;37.404;2023-11-21T07:11:56;99128.06;;;-4.69;75.63
24620;BME280;12763;55.802;37.404;2023-11-21T07:14:22;99116.13;;;-5.17;75.60
24620;BME280;12763;55.802;37.404;2023-11-21T07:16:48;99132.03;;;-5.46;76.98
24620;BME280;12763;55.802;37.404;2023-11-21T07:19:14;99136.44;;;-5.45;77.69
24620;BME280;12763;55.802;37.404;2023-11-21T07:21:40;99146.47;;;-4.95;75.71
24620;BME280;12763;55.802;37.404;2023-11-21T07:24:07;99140.75;;;-4.81;74.09
24620;BME280;12763;55.802;37.404;2023-11-21T07:26:34;99141.03;;;-4.84;74.67
24620;BME280;12763;55.802;37.404;2023-11-21T07:29:02;99137.41;;;-5.14;74.45
24620;BME280;12763;55.802;37.404;2023-11-21T07:31:29;99140.50;;;-5.30;75.62
24620;BME280;12763;55.802;37.404;2023-11-21T07:33:55;99144.34;;;-4.91;75.13
24620;BME280;12763;55.802;37.404;2023-11-21T07:36:25;99139.75;;;-4.80;73.85
24620;BME280;12763;55.802;37.404;2023-11-21T07:38:51;99137.28;;;-4.92;73.96
24620;BME280;12763;55.802;37.404;2023-11-21T07:41:18;99148.47;;;-5.08;75.54
24620;BME280;12763;55.802;37.404;2023-11-21T07:43:45;99135.16;;;-4.68;74.41
24620;BME280;12763;55.802;37.404;2023-11-21T07:46:11;99145.06;;;-4.68;74.57
24620;BME280;12763;55.802;37.404;2023-11-21T07:48:42;99142.66;;;-4.41;73.75
24620;BME280;12763;55.802;37.404;2023-11-21T07:51:09;99146.06;;;-4.90;73.96
24620;BME280;12763;55.802;37.404;2023-11-21T07:53:37;99148.22;;;-4.63;74.17
24620;BME280;12763;55.802;37.404;2023-11-21T07:56:05;99152.31;;;-4.39;73.36
24620;BME280;12763;55.802;37.404;2023-11-21T07:58:31;99149.41;;;-4.56;72.99
24620;BME280;12763;55.802;37.404;2023-11-21T08:01:00;99137.31;;;-4.83;74.65
24620;BME280;12763;55.802;37.404;2023-11-21T08:03:26;99146.59;;;-4.96;75.67
24620;BME280;12763;55.802;37.404;2023-11-21T08:05:53;99142.69;;;-5.24;76.82
24620;BME280;12763;55.802;37.404;2023-11-21T08:08:19;99138.66;;;-4.98;75.91
24620;BME280;12763;55.802;37.404;2023-11-21T08:10:45;99142.53;;;-4.70;74.81
24620;BME280;12763;55.802;37.404;2023-11-21T08:13:23;99136.66;;;-4.54;74.50
24620;BME280;12763;55.802;37.404;2023-11-21T08:15:49;99127.28;;;-4.60;74.21
24620;BME280;12763;55.802;37.404;2023-11-21T08:18:15;99133.41;;;-4.79;75.30
24620;BME280;12763;55.802;37.404;2023-11-21T08:20:44;99137.84;;;-4.89;75.27
24620;BME280;12763;55.802;37.404;2023-11-21T08:23:16;99131.72;;;-4.49;75.11
24620;BME280;12763;55.802;37.404;2023-11-21T08:25:43;99119.16;;;-4.69;75.43
24620;BME280;12763;55.802;37.404;2023-11-21T08:28:09;99131.16;;;-4.73;76.02
24620;BME280;12763;55.802;37.404;2023-11-21T08:30:35;99134.41;;;-5.00;77.59
24620;BME280;12763;55.802;37.404;2023-11-21T08:33:01;99128.75;;;-4.46;76.52
24620;BME280;12763;55.802;37.404;2023-11-21T08:35:29;99129.38;;;-4.63;76.75
24620;BME280;12763;55.802;37.404;2023-11-21T08:37:55;99124.06;;;-4.75;77.06
24620;BME280;12763;55.802;37.404;2023-11-21T08:40:21;99122.38;;;-4.76;77.48
24620;BME280;12763;55.802;37.404;2023-11-21T08:42:47;99114.56;;;-4.79;77.58
24620;BME280;12763;55.802;37.404;2023-11-21T08:45:16;99116.91;;;-4.85;79.15
24620;BME280;12763;55.802;37.404;2023-11-21T08:47:43;99118.22;;;-4.80;78.55
24620;BME280;12763;55.802;37.404;2023-11-21T08:50:10;99119.34;;;-4.61;79.21
24620;BME280;12763;55.802;37.404;2023-11-21T08:52:38;99116.25;;;-4.47;78.49
24620;BME280;12763;55.802;37.404;2023-11-21T08:55:07;99121.25;;;-4.73;79.78
24620;BME280;12763;55.802;37.404;2023-11-21T08:57:37;99113.81;;;-4.60;79.55
24620;BME280;12763;55.802;37.404;2023-11-21T09:00:04;99117.53;;;-4.21;78.21
24620;BME280;12763;55.802;37.404;2023-11-21T09:02:33;99122.59;;;-4.28;78.26
24620;BME280;12763;55.802;37.404;2023-11-21T09:05:04;99119.16;;;-4.39;78.19
24620;BME280;12763;55.802;37.404;2023-11-21T09:07:30;99125.34;;;-4.48;77.41
24620;BME280;12763;55.802;37.404;2023-11-21T09:09:56;99127.50;;;-4.42;76.63
24620;BME280;12763;55.802;37.404;2023-11-21T09:12:22;99139.31;;;-4.34;76.44
24620;BME280;12763;55.802;37.404;2023-11-21T09:14:50;99139.88;;;-4.30;76.48
24620;BME280;12763;55.802;37.404;2023-11-21T09:17:17;99139.41;;;-4.45;77.41
24620;BME280;12763;55.802;37.404;2023-11-21T09:19:43;99138.81;;;-4.18;76.96
24620;BME280;12763;55.802;37.404;2023-11-21T09:22:18;99135.34;;;-4.30;76.80
24620;BME280;12763;55.802;37.404;2023-11-21T09:24:44;99138.44;;;-4.04;76.19
24620;BME280;12763;55.802;37.404;2023-11-21T09:27:10;99140.06;;;-4.52;78.47
24620;BME280;12763;55.802;37.404;2023-11-21T09:29:37;99150.72;;;-4.71;79.18
24620;BME280;12763;55.802;37.404;2023-11-21T09:32:06;99142.19;;;-4.56;77.49
24620;BME280;12763;55.802;37.404;2023-11-21T09:34:34;99142.50;;;-4.19;75.64
24620;BME280;12763;55.802;37.404;2023-11-21T09:37:05;99141.09;;;-4.13;75.06
24620;BME280;12763;55.802;37.404;2023-11-21T09:39:32;99143.19;;;-4.47;76.69
24620;BME280;12763;55.802;37.404;2023-11-21T09:44:45;99137.63;;;-4.55;76.29
24620;BME280;12763;55.802;37.404;2023-11-21T09:47:15;99130.25;;;-4.84;77.95
24620;BME280;12763;55.802;37.404;2023-11-21T09:49:47;99140.81;;;-4.71;77.80
24620;BME280;12763;55.802;37.404;2023-11-21T09:52:21;99141.34;;;-4.77;77.58
24620;BME280;12763;55.802;37.404;2023-11-21T09:54:50;99145.81;;;-4.36;76.47
24620;BME280;12763;55.802;37.404;2023-11-21T09:57:18;99154.94;;;-4.79;77.42
24620;BME280;12763;55.802;37.404;2023-11-21T09:59:45;99167.25;;;-4.97;78.88
24620;BME280;12763;55.802;37.404;2023-11-21T10:02:13;99157.59;;;-4.58;77.88
24620;BME280;12763;55.802;37.404;2023-11-21T10:04:40;99154.59;;;-4.64;76.69
24620;BME280;12763;55.802;37.404;2023-11-21T10:07:06;99171.94;;;-4.78;77.15
24620;BME280;12763;55.802;37.404;2023-11-21T10:09:36;99161.25;;;-4.38;76.69
24620;BME280;12763;55.802;37.404;2023-11-21T10:12:05;99168.63;;;-4.10;75.26
24620;BME280;12763;55.802;37.404;2023-11-21T10:14:37;99166.44;;;-3.95;73.80
24620;BME280;12763;55.802;37.404;2023-11-21T10:17:05;99170.16;;;-4.17;73.66
24620;BME280;12763;55.802;37.404;2023-11-21T10:19:36;99168.19;;;-4.15;73.47
24620;BME280;12763;55.802;37.404;2023-11-21T10:22:02;99164.28;;;-4.52;73.09
24620;BME280;12763;55.802;37.404;2023-11-21T10:24:29;99161.44;;;-4.30;73.43
24620;BME280;12763;55.802;37.404;2023-11-21T10:26:55;99168.63;;;-4.10;73.18
24620;BME280;12763;55.802;37.404;2023-11-21T10:29:21;99163.47;;;-4.23;73.52
24620;BME280;12763;55.802;37.404;2023-11-21T10:31:51;99178.41;;;-3.79;72.97
24620;BME280;12763;55.802;37.404;2023-11-21T10:34:20;99171.34;;;-4.31;73.84
24620;BME280;12763;55.802;37.404;2023-11-21T10:36:47;99169.16;;;-4.16;74.64
24620;BME280;12763;55.802;37.404;2023-11-21T10:39:16;99177.34;;;-4.27;73.70
24620;BME280;12763;55.802;37.404;2023-11-21T10:41:49;99174.56;;;-4.16;73.58
24620;BME280;12763;55.802;37.404;2023-11-21T10:44:18;99162.56;;;-4.33;74.65
24620;BME280;12763;55.802;37.404;2023-11-21T10:46:48;99164.38;;;-4.63;75.02
24620;BME280;12763;55.802;37.404;2023-11-21T10:49:18;99167.16;;;-4.24;73.79
24620;BME280;12763;55.802;37.404;2023-11-21T10:51:45;99170.72;;;-4.44;73.29
24620;BME280;12763;55.802;37.404;2023-11-21T10:54:11;99175.69;;;-4.19;73.76
24620;BME280;12763;55.802;37.404;2023-11-21T10:56:39;99170.94;;;-4.56;75.86
24620;BME280;12763;55.802;37.404;2023-11-21T10:59:10;99167.78;;;-4.10;75.30
24620;BME280;12763;55.802;37.404;2023-11-21T11:01:44;99178.44;;;-4.09;74.61
24620;BME280;12763;55.802;37.404;2023-11-21T11:04:12;99171.84;;;-4.46;75.36
24620;BME280;12763;55.802;37.404;2023-11-21T11:06:43;99177.06;;;-4.24;75.42
24620;BME280;12763;55.802;37.404;2023-11-21T11:09:13;99177.22;;;-4.46;75.90
24620;BME280;12763;55.802;37.404;2023-11-21T11:11:40;99172.06;;;-4.59;75.64
24620;BME280;12763;55.802;37.404;2023-11-21T11:14:10;99169.66;;;-4.32;75.53
24620;BME280;12763;55.802;37.404;2023-11-21T11:16:38;99174.69;;;-4.48;73.91
24620;BME280;12763;55.802;37.404;2023-11-21T11:19:07;99170.63;;;-4.63;75.00
24620;BME280;12763;55.802;37.404;2023-11-21T11:24:36;99170.50;;;-4.61;73.71
24620;BME280;12763;55.802;37.404;2023-11-21T11:27:37;99174.13;;;-4.42;73.76
24620;BME280;12763;55.802;37.404;2023-11-21T11:32:53;99185.66;;;-4.40;71.42
24620;BME280;12763;55.802;37.404;2023-11-21T11:35:32;99191.41;;;-4.44;72.54
24620;BME280;12763;55.802;37.404;2023-11-21T11:37:59;99193.72;;;-4.40;72.13
24620;BME280;12763;55.802;37.404;2023-11-21T11:40:41;99196.88;;;-4.55;73.07
24620;BME280;12763;55.802;37.404;2023-11-21T11:43:10;99200.53;;;-4.36;72.72
24620;BME280;12763;55.802;37.404;2023-11-21T11:45:37;99198.09;;;-4.39;72.48
24620;BME280;12763;55.802;37.404;2023-11-21T11:48:11;99203.25;;;-4.56;72.95
24620;BME280;12763;55.802;37.404;2023-11-21T11:53:39;99189.41;;;-4.72;74.50
24620;BME280;12763;55.802;37.404;2023-11-21T11:56:28;99206.75;;;-4.65;73.29
24620;BME280;12763;55.802;37.404;2023-11-21T11:59:01;99201.81;;;-4.60;73.06
24620;BME280;12763;55.802;37.404;2023-11-21T12:01:33;99193.41;;;-4.88;73.35
24620;BME280;12763;55.802;37.404;2023-11-21T12:04:27;99212.84;;;-4.63;72.95
24620;BME280;12763;55.802;37.404;2023-11-21T12:07:02;99215.19;;;-4.91;75.17
24620;BME280;12763;55.802;37.404;2023-11-21T12:09:30;99205.38;;;-4.81;75.56
24620;BME280;12763;55.802;37.404;2023-11-21T12:11:57;99211.16;;;-4.64;73.05
24620;BME280;12763;55.802;37.404;2023-11-21T12:14:24;99217.91;;;-4.70;73.47
24620;BME280;12763;55.802;37.404;2023-11-21T12:16:50;99223.41;;;-4.30;72.33
24620;BME280;12763;55.802;37.404;2023-11-21T12:19:17;99216.78;;;-4.67;73.51
24620;BME280;12763;55.802;37.404;2023-11-21T12:21:44;99214.94;;;-4.46;72.79
24620;BME280;12763;55.802;37.404;2023-11-21T12:24:10;99218.34;;;-4.44;72.70
24620;BME280;12763;55.802;37.404;2023-11-21T12:26:40;99225.84;;;-4.27;71.34
24620;BME280;12763;55.802;37.404;2023-11-21T12:29:06;99230.44;;;-4.59;71.65
24620;BME280;12763;55.802;37.404;2023-11-21T12:31:34;99234.31;;;-4.52;72.54
24620;BME280;12763;55.802;37.404;2023-11-21T12:34:01;99238.41;;;-4.37;72.14
24620;BME280;12763;55.802;37.404;2023-11-21T12:36:27;99230.25;;;-4.67;73.15
24620;BME280;12763;55.802;37.404;2023-11-21T12:38:56;99231.38;;;-4.49;73.01
24620;BME280;12763;55.802;37.404;2023-11-21T12:41:22;99233.59;;;-4.54;73.48
24620;BME280;12763;55.802;37.404;2023-11-21T12:43:48;99240.59;;;-4.22;72.63
24620;BME280;12763;55.802;37.404;2023-11-21T12:46:15;99237.00;;;-4.52;73.81
24620;BME280;12763;55.802;37.404;2023-11-21T12:48:41;99242.00;;;-4.27;72.64
24620;BME280;12763;55.802;37.404;2023-11-21T12:51:10;99252.53;;;-4.45;72.76
24620;BME280;12763;55.802;37.404;2023-11-21T12:53:45;99239.38;;;-4.38;73.61
24620;BME280;12763;55.802;37.404;2023-11-21T12:56:13;99237.19;;;-4.44;73.75
24620;BME280;12763;55.802;37.404;2023-11-21T12:58:44;99233.69;;;-4.45;74.88
24620;BME280;12763;55.802;37.404;2023-11-21T13:01:13;99229.44;;;-4.58;74.62
24620;BME280;12763;55.802;37.404;2023-11-21T13:03:47;99236.59;;;-4.68;75.32
24620;BME280;12763;55.802;37.404;2023-11-21T13:06:15;99234.19;;;-4.71;74.66